createdAt,value
2018-11-22T12:16:02.359Z,47.77
2018-11-22T12:18:36.479Z,46.50
2018-11-22T12:20:56.061Z,46.43
2018-11-22T12:23:22.888Z,46.65
2018-11-22T12:25:49.736Z,45.98
2018-11-22T12:28:16.572Z,46.36
2018-11-22T12:30:43.416Z,46.28
2018-11-22T12:33:19.501Z,46.17
2018-11-22T12:35:51.677Z,47.00
2018-11-22T12:38:23.937Z,46.33
2018-11-22T12:40:50.764Z,46.46
2018-11-22T12:43:17.643Z,46.66
2018-11-22T12:45:44.470Z,47.32
2018-11-22T12:48:11.294Z,46.91
2018-11-22T12:50:38.175Z,46.74
2018-11-22T12:53:05.018Z,47.32
2018-11-22T12:55:31.856Z,46.77
2018-11-22T12:57:58.705Z,46.77
2018-11-22T13:00:25.558Z,46.74
2018-11-22T13:02:52.401Z,47.55
2018-11-22T13:05:20.049Z,47.04
2018-11-22T13:07:46.894Z,47.67
2018-11-22T13:10:14.985Z,47.41
2018-11-22T13:12:42.858Z,47.07
2018-11-22T13:15:09.905Z,47.00
2018-11-22T13:17:36.733Z,47.21
2018-11-22T13:20:03.566Z,47.26
2018-11-22T13:22:30.396Z,47.44
2018-11-22T13:24:57.224Z,48.19
2018-11-22T13:27:24.049Z,47.88
2018-11-22T13:29:50.877Z,48.46
2018-11-22T13:32:21.419Z,47.84
2018-11-22T13:34:44.590Z,48.35
2018-11-22T13:37:11.437Z,48.05
2018-11-22T13:39:38.270Z,48.56
2018-11-22T13:42:05.101Z,48.03
2018-11-22T13:44:31.936Z,48.75
2018-11-22T13:46:58.817Z,48.87
2018-11-22T13:49:25.726Z,48.86
2018-11-22T13:51:52.565Z,48.69
2018-11-22T13:54:19.401Z,48.54
2018-11-22T13:56:46.241Z,49.22
2018-11-22T13:59:13.109Z,49.13
2018-11-22T14:01:39.948Z,48.92
2018-11-22T14:04:06.791Z,49.24
2018-11-22T14:06:33.621Z,48.80
2018-11-22T14:09:00.561Z,49.49
2018-11-22T14:11:27.396Z,48.79
2018-11-22T14:13:54.225Z,48.72
2018-11-22T14:16:21.094Z,48.79
2018-11-22T14:18:47.925Z,49.54
2018-11-22T14:21:14.847Z,49.11
2018-11-22T14:23:41.689Z,49.19
2018-11-22T14:26:08.529Z,49.12
2018-11-22T14:28:35.358Z,49.23
2018-11-22T14:31:02.188Z,49.03
2018-11-22T14:33:29.023Z,49.63
2018-11-22T14:35:55.903Z,49.37
2018-11-22T14:38:22.734Z,49.38
2018-11-22T14:40:49.569Z,49.88
2018-11-22T14:43:16.397Z,49.34
2018-11-22T14:45:43.304Z,50.10
2018-11-22T14:48:10.150Z,49.38
2018-11-22T14:50:36.988Z,49.44
2018-11-22T14:53:03.813Z,49.59
2018-11-22T14:55:30.668Z,49.42
2018-11-22T14:57:57.521Z,49.30
2018-11-22T15:00:24.353Z,49.64
2018-11-22T15:02:51.188Z,49.84
2018-11-22T15:05:18.031Z,49.93
2018-11-22T15:07:45.298Z,50.08
2018-11-22T15:10:13.377Z,49.58
2018-11-22T15:12:40.837Z,50.62
2018-11-22T15:15:07.682Z,50.02
2018-11-22T15:17:34.513Z,50.89
2018-11-22T15:20:01.357Z,49.86
2018-11-22T15:22:28.189Z,50.09
2018-11-22T15:24:55.010Z,49.73
2018-11-22T15:27:21.837Z,50.58
2018-11-22T15:29:48.661Z,50.26
2018-11-22T15:32:15.513Z,51.13
2018-11-22T15:34:42.354Z,50.72
2018-11-22T15:37:09.257Z,50.70
2018-11-22T15:39:36.094Z,50.85
2018-11-22T15:42:02.926Z,50.46
2018-11-22T15:44:29.780Z,50.30
2018-11-22T15:46:56.609Z,50.14
2018-11-22T15:49:23.442Z,50.57
2018-11-22T15:51:50.316Z,50.99
2018-11-22T15:54:17.153Z,51.21
2018-11-22T15:56:44.032Z,51.01
2018-11-22T15:59:10.869Z,51.17
2018-11-22T16:01:37.704Z,51.62
2018-11-22T16:04:04.537Z,50.97
2018-11-22T16:06:31.388Z,51.22
2018-11-22T16:08:58.221Z,51.18
2018-11-22T16:11:25.050Z,51.23
2018-11-22T16:13:51.872Z,51.87
2018-11-22T16:16:18.804Z,51.85
2018-11-22T16:18:45.657Z,51.01
2018-11-22T16:21:12.609Z,51.61
2018-11-22T16:23:39.468Z,51.31
2018-11-22T16:26:06.327Z,50.80
2018-11-22T16:28:33.212Z,51.87
2018-11-22T16:31:00.066Z,51.91
2018-11-22T16:33:27.021Z,51.87
2018-11-22T16:35:53.873Z,51.51
2018-11-22T16:38:20.733Z,51.46
2018-11-22T16:40:47.617Z,51.70
2018-11-22T16:43:14.492Z,51.12
2018-11-22T16:45:41.404Z,51.91
2018-11-22T16:48:09.688Z,51.17
2018-11-22T16:50:37.632Z,51.61
2018-11-22T16:53:04.518Z,51.67
2018-11-22T16:55:31.373Z,51.31
2018-11-22T16:57:59.434Z,51.92
2018-11-22T17:00:27.486Z,51.75
2018-11-22T17:02:55.458Z,51.50
2018-11-22T17:05:22.581Z,51.99
2018-11-22T17:07:49.716Z,51.80
2018-11-22T17:10:18.733Z,51.54
2018-11-22T17:12:46.384Z,51.89
2018-11-22T17:15:14.689Z,52.03
2018-11-22T17:17:41.649Z,51.66
2018-11-22T17:20:08.626Z,51.63
2018-11-22T17:22:35.513Z,51.65
2018-11-22T17:25:02.371Z,51.71
2018-11-22T17:27:29.293Z,52.30
2018-11-22T17:29:56.230Z,52.46
2018-11-22T17:32:23.110Z,51.56
2018-11-22T17:34:50.731Z,52.12
2018-11-22T17:37:16.957Z,51.91
2018-11-22T17:39:43.829Z,52.36
2018-11-22T17:42:10.708Z,52.65
2018-11-22T17:44:37.580Z,52.99
2018-11-22T17:47:04.433Z,52.05
2018-11-22T17:49:31.312Z,51.84
2018-11-22T17:51:58.181Z,52.66
2018-11-22T17:54:25.033Z,51.81
2018-11-22T17:56:51.917Z,52.38
2018-11-22T17:59:18.813Z,52.59
2018-11-22T18:01:45.720Z,51.60
2018-11-22T18:04:12.573Z,52.56
2018-11-22T18:06:39.425Z,52.48
2018-11-22T18:09:06.261Z,51.68
2018-11-22T18:11:33.096Z,52.53
2018-11-22T18:13:59.926Z,52.39
2018-11-22T18:16:26.777Z,51.96
2018-11-22T18:18:53.605Z,51.83
2018-11-22T18:21:20.438Z,51.84
2018-11-22T18:23:47.289Z,52.42
2018-11-22T18:26:14.120Z,52.01
2018-11-22T18:28:40.944Z,51.96
2018-11-22T18:31:07.806Z,52.85
2018-11-22T18:33:34.641Z,52.66
2018-11-22T18:36:01.469Z,51.82
2018-11-22T18:38:28.298Z,51.77
2018-11-22T18:40:55.125Z,52.63
2018-11-22T18:43:21.955Z,52.15
2018-11-22T18:45:49.264Z,51.88
2018-11-22T18:48:17.228Z,52.09
2018-11-22T18:50:44.489Z,52.26
2018-11-22T18:53:11.495Z,51.87
2018-11-22T18:55:38.297Z,51.78
2018-11-22T18:58:05.172Z,52.69
2018-11-22T19:00:33.394Z,52.05
2018-11-22T19:03:00.245Z,51.54
2018-11-22T19:05:27.082Z,52.00
2018-11-22T19:07:54.569Z,52.10
2018-11-22T19:10:24.609Z,51.83
2018-11-22T19:12:52.281Z,52.09
2018-11-22T19:15:20.512Z,52.46
2018-11-22T19:17:47.553Z,52.02
2018-11-22T19:20:15.413Z,52.58
2018-11-22T19:22:43.081Z,52.01
2018-11-22T19:25:10.117Z,52.07
2018-11-22T19:27:36.949Z,52.38
2018-11-22T19:30:03.868Z,52.00
2018-11-22T19:32:30.672Z,51.80
2018-11-22T19:34:57.602Z,52.87
2018-11-22T19:37:24.434Z,53.06
2018-11-22T19:39:51.273Z,53.02
2018-11-22T19:42:18.133Z,53.05
2018-11-22T19:44:44.965Z,52.73
2018-11-22T19:47:11.833Z,53.02
2018-11-22T19:49:38.673Z,52.60
2018-11-22T19:52:05.503Z,53.35
2018-11-22T19:54:32.597Z,52.76
2018-11-22T19:56:59.421Z,53.38
2018-11-22T19:59:26.269Z,52.76
2018-11-22T20:01:53.097Z,52.96
2018-11-22T20:04:19.921Z,53.55
2018-11-22T20:06:46.759Z,53.53
2018-11-22T20:09:13.598Z,52.95
2018-11-22T20:11:40.616Z,53.31
2018-11-22T20:14:07.659Z,53.00
2018-11-22T20:16:34.580Z,52.90
2018-11-22T20:19:01.600Z,53.26
2018-11-22T20:21:28.453Z,53.25
2018-11-22T20:23:55.321Z,53.51
2018-11-22T20:26:22.210Z,53.73
2018-11-22T20:28:49.080Z,53.14
2018-11-22T20:31:15.977Z,53.79
2018-11-22T20:33:42.996Z,53.01
2018-11-22T20:36:09.929Z,53.76
2018-11-22T20:38:36.842Z,53.89
2018-11-22T20:41:03.729Z,53.06
2018-11-22T20:43:30.609Z,53.87
2018-11-22T20:45:57.517Z,54.00
2018-11-22T20:48:24.473Z,53.91
2018-11-22T20:50:51.401Z,53.55
2018-11-22T20:53:18.291Z,53.89
2018-11-22T20:55:45.246Z,53.28
2018-11-22T20:58:12.172Z,54.17
2018-11-22T21:00:40.623Z,54.02
2018-11-22T21:03:07.482Z,53.74
2018-11-22T21:05:35.087Z,53.28
2018-11-22T21:08:01.396Z,53.74
2018-11-22T21:10:29.670Z,53.48
2018-11-22T21:12:56.649Z,54.28
2018-11-22T21:15:24.962Z,53.71
2018-11-22T21:17:52.861Z,53.68
2018-11-22T21:20:21.332Z,53.57
2018-11-22T21:22:48.219Z,54.17
2018-11-22T21:25:16.546Z,54.27
2018-11-22T21:27:43.470Z,53.50
2018-11-22T21:30:10.493Z,54.34
2018-11-22T21:32:37.408Z,53.67
2018-11-22T21:35:04.306Z,53.75
2018-11-22T21:37:31.206Z,53.67
2018-11-22T21:39:58.141Z,54.14
2018-11-22T21:42:25.037Z,54.50
2018-11-22T21:44:51.945Z,53.67
2018-11-22T21:47:18.864Z,53.47
2018-11-22T21:49:45.837Z,54.43
2018-11-22T21:52:12.807Z,54.22
2018-11-22T21:54:39.760Z,54.29
2018-11-22T21:57:06.600Z,54.35
2018-11-22T21:59:33.478Z,54.40
2018-11-22T22:02:00.381Z,54.47
2018-11-22T22:04:27.236Z,54.17
2018-11-22T22:06:54.193Z,54.00
2018-11-22T22:09:21.057Z,54.66
2018-11-22T22:11:47.900Z,54.51
2018-11-22T22:14:14.765Z,53.96
2018-11-22T22:16:41.661Z,54.49
2018-11-22T22:19:08.631Z,54.24
2018-11-22T22:21:35.526Z,53.80
2018-11-22T22:24:02.400Z,54.25
2018-11-22T22:26:29.281Z,54.46
2018-11-22T22:28:56.147Z,54.53
2018-11-22T22:31:23.043Z,53.92
2018-11-22T22:33:49.900Z,54.19
2018-11-22T22:36:16.809Z,54.56
2018-11-22T22:38:43.785Z,54.43
2018-11-22T22:41:10.894Z,53.79
2018-11-22T22:43:37.742Z,54.24
2018-11-22T22:46:04.609Z,54.50
2018-11-22T22:48:31.501Z,54.63
2018-11-22T22:50:58.361Z,54.63
2018-11-22T22:53:25.264Z,54.70
2018-11-22T22:55:52.173Z,54.18
2018-11-22T22:58:19.111Z,54.56
2018-11-22T23:00:48.315Z,54.57
2018-11-22T23:03:15.168Z,54.48
2018-11-22T23:05:42.037Z,54.02
2018-11-22T23:08:08.940Z,53.93
2018-11-22T23:10:35.827Z,53.84
2018-11-22T23:13:02.728Z,54.43
2018-11-22T23:15:30.638Z,54.51
2018-11-22T23:17:57.565Z,54.12
2018-11-22T23:20:26.073Z,54.64
2018-11-22T23:22:53.218Z,54.16
2018-11-22T23:25:21.136Z,54.48
2018-11-22T23:27:48.025Z,54.44
2018-11-22T23:30:15.458Z,54.67
2018-11-22T23:32:42.922Z,54.66
2018-11-22T23:35:10.166Z,54.62
2018-11-22T23:37:37.045Z,54.79
2018-11-22T23:40:03.954Z,53.87
2018-11-22T23:42:30.808Z,54.75
2018-11-22T23:44:57.711Z,54.28
2018-11-22T23:47:24.586Z,54.13
2018-11-22T23:49:51.501Z,54.73
2018-11-22T23:52:18.580Z,54.02
2018-11-22T23:54:45.477Z,54.11
2018-11-22T23:57:12.364Z,54.59
2018-11-22T23:59:39.237Z,54.00
